KINT/INT METAR and TAF weather

Enter ICAO airport designator
Station Type Date Time Source
KINT METAR 2020/12/05 05:54 UTC NOAA

KINT 050554Z AUTO 28011G20KT 10SM -RA SCT032 BKN048 OVC055 09/08 A2980 RMK AO2 RAB0456 SLP087 P0005 60073 T00890078 10111 20089 53017


Station Type Date Time Source
KINT Decoded METAR 2020/12/05 05:54 UTC NOAA

WINSTON SALEM SMITH REYNOLDS, NC, United States (KINT) 36-08N 80-14W 291M
Dec 05, 2020 - 12:54 AM EST / 2020.12.05 0554 UTC
Wind: from the W (280 degrees) at 13 MPH (11 KT) gusting to 23 MPH (20 KT):0
Visibility: 10 mile(s):0
Sky conditions: overcast
Weather: light rain
Precipitation last hour: 0.05 inches
Temperature: 48.0 F (8.9 C)
Dew Point: 46.0 F (7.8 C)
Relative Humidity: 92%
Pressure (altimeter): 29.8 in. Hg (1009 hPa)
Pressure tendency: 0.05 inches (1.7 hPa) higher than three hours ago
ob: KINT 050554Z AUTO 28011G20KT 10SM -RA SCT032 BKN048 OVC055 09/08 A2980 RMK AO2 RAB0456 SLP087 P0005 60073 T00890078 10111 20089 53017
cycle: 6

Station Type Date Time Source
KINT TAF 2020/12/05 06:42 UTC NOAA

TAF KINT 050540Z 0506/0606 30015G20KT P6SM -SHRA FEW020 BKN050
FM050700 31015G27KT P6SM SCT007 OVC035
FM050900 31012G25KT P6SM FEW030
FM051400 31013G24KT P6SM SKC

Example: see airport list